Time;durP1;ratioP1;P1;durP2;ratioP2;P2;SDS_P1;SDS_P2;PMS_P1;PMS_P2;Temp;Humidity;BMP_temperature;BMP_pressure;BME280_temperature;BME280_humidity;BME280_pressure;Samples;Min_cycle;Max_cycle;Signal;HPM_P1;HPM_P2
2024/03/14 00:02:09;;;;;;;26.27;13.90;;;9.70;99.90;;;;;;5087041;28;20188;-47
2024/03/14 00:04:36;;;;;;;23.20;13.90;;;9.70;99.90;;;;;;5074317;28;20205;-48
2024/03/14 00:07:03;;;;;;;26.10;14.67;;;9.70;99.90;;;;;;5060052;28;20183;-49
2024/03/14 00:09:30;;;;;;;26.70;14.20;;;9.70;99.90;;;;;;5047223;28;20559;-49
2024/03/14 00:11:57;;;;;;;23.10;14.37;;;9.70;99.90;;;;;;5070051;28;20307;-49
2024/03/14 00:14:24;;;;;;;22.47;14.00;;;9.70;99.90;;;;;;5077019;28;20205;-49
2024/03/14 00:16:52;;;;;;;24.67;14.57;;;9.70;99.90;;;;;;5060292;28;20262;-50
2024/03/14 00:19:19;;;;;;;22.13;13.20;;;9.70;99.90;;;;;;5074582;28;20197;-49
2024/03/14 00:21:46;;;;;;;22.67;13.60;;;9.70;99.90;;;;;;5062140;28;20193;-52
2024/03/14 00:24:14;;;;;;;24.67;14.07;;;9.70;99.90;;;;;;5073277;28;20545;-52
2024/03/14 00:26:41;;;;;;;23.73;14.10;;;9.70;99.90;;;;;;5044583;28;20232;-50
2024/03/14 00:29:08;;;;;;;25.93;14.53;;;9.70;99.90;;;;;;5072517;28;20255;-46
2024/03/14 00:31:38;;;;;;;24.13;14.53;;;9.70;99.90;;;;;;5067322;28;20224;-51
2024/03/14 00:34:07;;;;;;;29.67;15.63;;;9.70;99.90;;;;;;5079173;28;20202;-49
2024/03/14 00:36:37;;;;;;;26.33;15.60;;;9.80;99.90;;;;;;5064665;28;20216;-50
2024/03/14 00:39:06;;;;;;;30.20;16.27;;;9.80;99.90;;;;;;5076708;28;20190;-50
2024/03/14 00:41:33;;;;;;;27.50;15.27;;;9.80;99.90;;;;;;5055935;28;20221;-48
2024/03/14 00:44:01;;;;;;;27.03;15.00;;;9.80;99.90;;;;;;5076653;28;20203;-47
2024/03/14 00:46:29;;;;;;;29.57;16.20;;;9.80;99.90;;;;;;5081092;28;20229;-46
2024/03/14 00:48:59;;;;;;;29.67;16.47;;;9.80;99.90;;;;;;5061352;28;20227;-48
2024/03/14 00:51:26;;;;;;;31.87;16.73;;;9.80;99.90;;;;;;5080332;28;20199;-47
2024/03/14 00:53:54;;;;;;;28.70;15.77;;;9.90;99.90;;;;;;5077490;28;20222;-49
2024/03/14 00:56:23;;;;;;;30.20;16.73;;;9.90;99.90;;;;;;5052121;28;20254;-49
2024/03/14 00:58:50;;;;;;;30.53;16.60;;;9.90;99.90;;;;;;5079856;28;20201;-51
2024/03/14 01:01:17;;;;;;;33.17;17.13;;;9.90;99.90;;;;;;5077890;28;20222;-49
2024/03/14 01:03:44;;;;;;;33.23;18.40;;;9.90;99.90;;;;;;5061266;28;20255;-50
2024/03/14 01:06:12;;;;;;;33.87;17.43;;;9.90;99.90;;;;;;5094847;28;20189;-52
2024/03/14 01:08:40;;;;;;;30.77;16.47;;;9.90;99.90;;;;;;5081106;28;20305;-52
2024/03/14 01:11:07;;;;;;;38.57;18.80;;;10.00;99.90;;;;;;5052891;28;21509;-50
2024/03/14 01:13:34;;;;;;;31.50;18.27;;;10.00;99.90;;;;;;5084274;28;20213;-48
2024/03/14 01:16:01;;;;;;;33.83;17.47;;;10.00;99.90;;;;;;5074862;28;20193;-49
2024/03/14 01:18:28;;;;;;;32.80;17.17;;;10.00;99.90;;;;;;5063598;28;20194;-47
2024/03/14 01:20:55;;;;;;;37.13;18.03;;;10.00;99.90;;;;;;5077372;28;20249;-47
2024/03/14 01:23:23;;;;;;;39.87;18.83;;;10.00;99.90;;;;;;5083494;28;20205;-47
2024/03/14 01:25:50;;;;;;;31.97;17.23;;;10.00;99.90;;;;;;5061044;28;20675;-47
2024/03/14 01:28:17;;;;;;;34.67;18.13;;;10.00;99.90;;;;;;5074212;28;20212;-48
2024/03/14 01:30:44;;;;;;;30.57;17.90;;;10.10;99.90;;;;;;5078093;28;20239;-50
2024/03/14 01:33:11;;;;;;;28.90;17.47;;;10.10;99.90;;;;;;5077828;28;21010;-46
2024/03/14 01:35:38;;;;;;;38.27;19.93;;;10.10;99.90;;;;;;5068096;28;20201;-49
2024/03/14 01:38:06;;;;;;;37.70;19.17;;;10.10;99.90;;;;;;5091629;28;20216;-46
2024/03/14 01:40:33;;;;;;;35.17;18.30;;;10.10;99.90;;;;;;5083696;28;20270;-49
2024/03/14 01:43:00;;;;;;;33.67;19.10;;;10.10;99.90;;;;;;5052097;28;20274;-47
2024/03/14 01:45:27;;;;;;;36.10;19.57;;;10.10;99.90;;;;;;5070148;28;20191;-52
2024/03/14 01:47:54;;;;;;;33.53;18.03;;;10.10;99.90;;;;;;5080931;28;20205;-48
2024/03/14 01:50:22;;;;;;;37.57;19.43;;;10.10;99.90;;;;;;5081317;28;20224;-47
2024/03/14 01:52:49;;;;;;;33.53;19.47;;;10.10;99.90;;;;;;5080819;28;20675;-47
2024/03/14 01:55:16;;;;;;;35.73;20.07;;;10.20;99.90;;;;;;5082480;28;20214;-48
2024/03/14 01:57:43;;;;;;;36.37;19.23;;;10.10;99.90;;;;;;5053884;28;20213;-48
2024/03/14 02:00:14;;;;;;;34.57;19.23;;;10.20;99.90;;;;;;5082456;28;20213;-48
2024/03/14 02:02:41;;;;;;;38.37;18.73;;;10.20;99.90;;;;;;5077518;28;20235;-46
2024/03/14 02:05:11;;;;;;;34.77;18.47;;;10.10;99.90;;;;;;5079863;28;20246;-47
2024/03/14 02:07:38;;;;;;;35.50;19.43;;;10.10;99.90;;;;;;5068368;28;20220;-48
2024/03/14 02:10:06;;;;;;;31.57;18.47;;;10.20;99.90;;;;;;5083203;28;20197;-51
2024/03/14 02:12:33;;;;;;;33.97;18.50;;;10.20;99.90;;;;;;5052172;28;21651;-51
2024/03/14 02:15:02;;;;;;;35.17;18.33;;;10.20;99.90;;;;;;5089660;28;20214;-49
2024/03/14 02:17:29;;;;;;;38.47;19.33;;;10.20;99.90;;;;;;5069193;28;20198;-49
2024/03/14 02:19:56;;;;;;;35.87;18.63;;;10.20;99.90;;;;;;5075658;28;20281;-47
2024/03/14 02:22:23;;;;;;;39.40;19.90;;;10.20;99.90;;;;;;5075991;28;20218;-52
2024/03/14 02:24:51;;;;;;;32.70;19.23;;;10.20;99.90;;;;;;5081148;28;20262;-48
2024/03/14 02:27:18;;;;;;;34.17;19.00;;;10.20;99.90;;;;;;5095919;28;20543;-49
2024/03/14 02:29:45;;;;;;;32.73;18.67;;;10.20;99.90;;;;;;5047534;28;20802;-49
2024/03/14 02:32:12;;;;;;;36.83;18.77;;;10.20;99.90;;;;;;5077436;28;20215;-53
2024/03/14 02:34:39;;;;;;;34.23;18.07;;;10.20;99.90;;;;;;5077743;28;20200;-50
2024/03/14 02:37:06;;;;;;;32.03;18.67;;;10.20;99.90;;;;;;5078444;28;20202;-48
2024/03/14 02:39:34;;;;;;;30.97;18.27;;;10.20;99.90;;;;;;5061308;28;20186;-51
2024/03/14 02:42:01;;;;;;;35.07;19.27;;;10.20;99.90;;;;;;5079694;28;20690;-49
2024/03/14 02:44:28;;;;;;;31.40;17.87;;;10.20;99.90;;;;;;5048302;28;20680;-51
2024/03/14 02:46:56;;;;;;;31.90;17.97;;;10.20;99.90;;;;;;5079826;28;20201;-49
2024/03/14 02:49:23;;;;;;;30.80;17.87;;;10.20;99.90;;;;;;5075102;28;20189;-52
2024/03/14 02:51:50;;;;;;;34.27;18.47;;;10.20;99.90;;;;;;5077813;28;20194;-51
2024/03/14 02:54:17;;;;;;;30.83;18.47;;;10.20;99.90;;;;;;5058782;28;20589;-52
2024/03/14 02:56:47;;;;;;;31.37;18.30;;;10.20;99.90;;;;;;5077735;28;20258;-50
2024/03/14 02:59:14;;;;;;;30.53;18.27;;;10.20;99.90;;;;;;5087428;28;20269;-51
2024/03/14 03:01:41;;;;;;;29.23;17.80;;;10.30;99.90;;;;;;5059147;28;20225;-48
2024/03/14 03:04:09;;;;;;;26.87;17.13;;;10.20;99.90;;;;;;5078290;28;20248;-48
2024/03/14 03:06:43;;;;;;;28.47;16.93;;;10.30;99.90;;;;;;5079715;28;20209;-47
2024/03/14 03:09:10;;;;;;;31.20;17.83;;;10.30;99.90;;;;;;5080224;28;20237;-49
2024/03/14 03:11:38;;;;;;;28.67;18.10;;;10.30;99.90;;;;;;5058466;28;20196;-47
2024/03/14 03:14:05;;;;;;;30.23;17.73;;;10.30;99.90;;;;;;5081763;28;20217;-50
2024/03/14 03:16:34;;;;;;;26.97;17.33;;;10.30;99.90;;;;;;5048456;28;20939;-49
2024/03/14 03:19:01;;;;;;;30.13;18.10;;;10.30;99.90;;;;;;5063020;28;20664;-48
2024/03/14 03:21:28;;;;;;;30.07;17.83;;;10.30;99.90;;;;;;5077040;28;20220;-50
2024/03/14 03:23:54;;;;;;;26.30;16.20;;;10.30;99.90;;;;;;5078487;28;20227;-46
2024/03/14 03:26:21;;;;;;;28.93;17.57;;;10.30;99.90;;;;;;5065734;28;20287;-53
2024/03/14 03:28:48;;;;;;;26.40;17.03;;;10.30;99.90;;;;;;5082712;28;20197;-47
2024/03/14 03:31:14;;;;;;;26.47;16.50;;;10.30;99.90;;;;;;5049342;28;20211;-51
2024/03/14 03:33:42;;;;;;;28.37;17.23;;;10.30;99.90;;;;;;5074674;28;20213;-49
2024/03/14 03:36:08;;;;;;;25.53;16.67;;;10.30;99.90;;;;;;5075062;28;20220;-46
2024/03/14 03:38:36;;;;;;;24.90;15.43;;;10.30;99.90;;;;;;5073078;28;20236;-49
2024/03/14 03:41:02;;;;;;;26.73;16.80;;;10.30;99.90;;;;;;5062446;28;20308;-51
2024/03/14 03:43:29;;;;;;;26.70;16.30;;;10.30;99.90;;;;;;5076330;28;20233;-47
2024/03/14 03:45:57;;;;;;;27.97;17.30;;;10.30;99.90;;;;;;5047017;28;20270;-50
2024/03/14 03:48:24;;;;;;;23.13;16.13;;;10.30;99.90;;;;;;5075451;28;20205;-50
2024/03/14 03:50:50;;;;;;;21.97;15.50;;;10.30;99.90;;;;;;5077993;28;20190;-49
2024/03/14 03:53:18;;;;;;;22.30;15.70;;;10.30;99.90;;;;;;5075101;28;20879;-51
2024/03/14 03:55:44;;;;;;;25.10;16.03;;;10.30;99.90;;;;;;5061371;28;20275;-47
2024/03/14 03:58:11;;;;;;;23.63;15.07;;;10.30;99.90;;;;;;5094944;28;20683;-51
2024/03/14 04:00:41;;;;;;;25.17;16.00;;;10.30;99.90;;;;;;5068924;28;20209;-46
2024/03/14 04:03:09;;;;;;;23.17;16.07;;;10.30;99.90;;;;;;5045581;28;20227;-47
2024/03/14 04:05:35;;;;;;;28.20;16.33;;;10.30;99.90;;;;;;5073235;28;20189;-50
2024/03/14 04:08:01;;;;;;;20.90;14.80;;;10.30;99.90;;;;;;5095876;28;20266;-49
2024/03/14 04:10:27;;;;;;;20.13;13.93;;;10.30;99.90;;;;;;5073157;28;20253;-50
2024/03/14 04:12:54;;;;;;;22.00;14.40;;;10.30;99.90;;;;;;5057843;28;20218;-51
2024/03/14 04:15:21;;;;;;;24.73;15.03;;;10.30;99.90;;;;;;5076165;28;20197;-50
2024/03/14 04:17:48;;;;;;;25.50;15.53;;;10.30;99.90;;;;;;5044155;28;20205;-46
2024/03/14 04:20:17;;;;;;;22.93;15.07;;;10.30;99.90;;;;;;5076483;28;20196;-51
2024/03/14 04:22:44;;;;;;;22.67;15.00;;;10.30;99.90;;;;;;5074066;28;20249;-46
2024/03/14 04:25:14;;;;;;;24.80;15.03;;;10.30;99.90;;;;;;5077185;28;20203;-50
2024/03/14 04:27:41;;;;;;;21.47;15.20;;;10.40;99.90;;;;;;5057164;28;20287;-48
2024/03/14 04:30:10;;;;;;;25.03;14.10;;;10.40;99.90;;;;;;5073637;28;20222;-48
2024/03/14 04:32:39;;;;;;;23.87;13.80;;;10.40;99.90;;;;;;5044665;28;20339;-46
2024/03/14 04:35:08;;;;;;;21.00;13.83;;;10.40;99.90;;;;;;5085607;28;20205;-46
2024/03/14 04:37:37;;;;;;;19.97;13.90;;;10.40;99.90;;;;;;5071447;28;20197;-47
2024/03/14 04:40:10;;;;;;;20.10;13.80;;;10.30;99.90;;;;;;5074633;28;20193;-49
2024/03/14 04:42:39;;;;;;;18.83;13.57;;;10.40;99.90;;;;;;5089399;28;20217;-46
2024/03/14 04:45:11;;;;;;;18.83;14.07;;;10.40;99.90;;;;;;5058510;28;20201;-51
2024/03/14 04:47:38;;;;;;;20.83;13.47;;;10.40;99.90;;;;;;5046774;28;21195;-48
2024/03/14 04:50:08;;;;;;;19.70;14.17;;;10.40;99.90;;;;;;5064625;28;20209;-46
2024/03/14 04:52:35;;;;;;;21.10;14.40;;;10.40;99.90;;;;;;5072807;28;21239;-49
2024/03/14 04:55:05;;;;;;;19.50;13.17;;;10.40;99.90;;;;;;5066350;28;20396;-47
2024/03/14 04:57:33;;;;;;;18.03;13.60;;;10.40;99.90;;;;;;5091065;28;20194;-46
2024/03/14 05:00:00;;;;;;;19.47;13.97;;;10.40;99.90;;;;;;5068148;28;20202;-47
2024/03/14 05:02:29;;;;;;;18.83;13.07;;;10.40;99.90;;;;;;5038353;28;20240;-51
2024/03/14 05:04:56;;;;;;;19.33;14.00;;;10.40;99.90;;;;;;5066507;28;20811;-46
2024/03/14 05:07:25;;;;;;;16.87;12.27;;;10.40;99.90;;;;;;5084859;28;20194;-51
2024/03/14 05:09:54;;;;;;;19.40;13.67;;;10.40;99.90;;;;;;5070549;28;20267;-50
2024/03/14 05:12:22;;;;;;;18.63;13.40;;;10.40;99.90;;;;;;5059967;28;20275;-49
2024/03/14 05:14:49;;;;;;;19.83;14.10;;;10.40;99.90;;;;;;5075627;28;20206;-48
2024/03/14 05:17:16;;;;;;;16.60;13.13;;;10.40;99.90;;;;;;5073335;28;20208;-48
2024/03/14 05:19:43;;;;;;;18.03;12.97;;;10.40;99.90;;;;;;5043555;28;20208;-48
2024/03/14 05:22:10;;;;;;;17.77;12.70;;;10.40;99.90;;;;;;5089806;28;20217;-49
2024/03/14 05:24:37;;;;;;;19.87;12.83;;;10.40;99.90;;;;;;5086846;28;20254;-47
2024/03/14 05:27:04;;;;;;;19.93;12.93;;;10.40;99.90;;;;;;5067014;28;20201;-48
2024/03/14 05:29:30;;;;;;;17.87;12.47;;;10.40;99.90;;;;;;5095342;27;20189;-46
2024/03/14 05:31:57;;;;;;;16.80;13.03;;;10.40;99.90;;;;;;5066207;28;20205;-46
2024/03/14 05:34:24;;;;;;;15.57;12.70;;;10.40;99.90;;;;;;5060496;28;20350;-47
2024/03/14 05:36:51;;;;;;;17.50;12.03;;;10.40;99.90;;;;;;5078650;28;20194;-45
2024/03/14 05:39:21;;;;;;;19.20;13.00;;;10.40;99.90;;;;;;5073530;28;20197;-46
2024/03/14 05:41:48;;;;;;;20.60;13.80;;;10.40;99.90;;;;;;5091871;28;20229;-45
2024/03/14 05:44:15;;;;;;;17.30;12.93;;;10.40;99.90;;;;;;5069555;28;20217;-50
2024/03/14 05:46:42;;;;;;;17.87;13.07;;;10.40;99.90;;;;;;5061956;28;20197;-45
2024/03/14 05:49:09;;;;;;;16.43;12.23;;;10.40;99.90;;;;;;5073479;28;20222;-48
2024/03/14 05:51:36;;;;;;;18.93;13.43;;;10.40;99.90;;;;;;5057888;28;20185;-47
2024/03/14 05:54:04;;;;;;;19.90;13.10;;;10.40;99.90;;;;;;5092046;28;21621;-46
2024/03/14 05:56:31;;;;;;;16.30;13.20;;;10.40;99.90;;;;;;5053371;28;20206;-45
2024/03/14 05:58:57;;;;;;;16.23;12.77;;;10.40;99.90;;;;;;5082060;28;20262;-51
2024/03/14 06:01:24;;;;;;;15.30;12.77;;;10.40;99.90;;;;;;5062563;28;20214;-50
2024/03/14 06:03:51;;;;;;;18.57;12.47;;;10.40;99.90;;;;;;5068910;28;20233;-46
2024/03/14 06:06:19;;;;;;;18.97;13.50;;;10.40;99.90;;;;;;5041122;28;20258;-49
2024/03/14 06:08:46;;;;;;;20.13;13.73;;;10.40;99.90;;;;;;5074963;28;20222;-47
2024/03/14 06:11:15;;;;;;;18.77;14.30;;;10.30;99.90;;;;;;5082884;28;20201;-49
2024/03/14 06:13:42;;;;;;;18.73;12.63;;;10.30;99.90;;;;;;5072103;28;20209;-49
2024/03/14 06:16:10;;;;;;;23.67;13.87;;;10.30;99.90;;;;;;5080049;28;20197;-47
2024/03/14 06:18:37;;;;;;;19.97;13.63;;;10.30;99.90;;;;;;5067642;28;20197;-47
2024/03/14 06:21:05;;;;;;;22.10;14.67;;;10.30;99.90;;;;;;5065531;28;20213;-51
2024/03/14 06:23:32;;;;;;;21.00;14.50;;;10.30;99.90;;;;;;5066125;28;20213;-57
2024/03/14 06:26:00;;;;;;;22.30;14.77;;;10.20;99.90;;;;;;5066442;28;20225;-52
2024/03/14 06:28:28;;;;;;;24.30;15.13;;;10.20;99.90;;;;;;5088388;28;20200;-50
2024/03/14 06:30:55;;;;;;;23.20;14.10;;;10.20;99.90;;;;;;5076234;28;20201;-54
2024/03/14 06:33:22;;;;;;;19.23;14.60;;;10.20;99.90;;;;;;5061791;28;20214;-55
2024/03/14 06:35:49;;;;;;;24.03;14.47;;;10.20;99.90;;;;;;5050098;28;20198;-53
2024/03/14 06:38:16;;;;;;;22.53;14.23;;;10.20;99.90;;;;;;5066647;28;20206;-54
2024/03/14 06:40:43;;;;;;;20.83;14.87;;;10.20;99.90;;;;;;5074210;28;20186;-53
2024/03/14 06:43:11;;;;;;;20.93;14.70;;;10.20;99.90;;;;;;5062712;28;20217;-52
2024/03/14 06:45:38;;;;;;;23.33;15.17;;;10.20;99.90;;;;;;5091479;28;20189;-55
2024/03/14 06:48:05;;;;;;;23.87;15.30;;;10.20;99.90;;;;;;5077052;28;20733;-50
2024/03/14 06:50:32;;;;;;;21.77;14.90;;;10.20;99.90;;;;;;5031067;28;20213;-49
2024/03/14 06:52:59;;;;;;;21.93;14.70;;;10.30;99.90;;;;;;5077478;28;20321;-52
2024/03/14 06:55:27;;;;;;;27.40;16.10;;;10.20;99.90;;;;;;5049828;28;20281;-51
2024/03/14 06:57:54;;;;;;;24.27;15.73;;;10.20;99.90;;;;;;5070448;28;20517;-52
2024/03/14 07:00:24;;;;;;;21.57;15.83;;;10.30;99.90;;;;;;5078612;28;20259;-49
2024/03/14 07:02:52;;;;;;;21.17;15.27;;;10.30;99.90;;;;;;5058930;28;20230;-51
2024/03/14 07:05:22;;;;;;;21.10;15.77;;;10.30;99.90;;;;;;5063521;28;20258;-54
2024/03/14 07:07:49;;;;;;;25.53;16.97;;;10.40;99.90;;;;;;5063977;28;20207;-51
2024/03/14 07:10:16;;;;;;;21.57;15.60;;;10.40;99.90;;;;;;5089674;28;20202;-49
2024/03/14 07:12:45;;;;;;;23.80;16.27;;;10.50;99.90;;;;;;5070557;28;20218;-50
2024/03/14 07:15:13;;;;;;;19.43;14.53;;;10.50;99.90;;;;;;5100853;28;20619;-49
2024/03/14 07:17:40;;;;;;;20.27;14.60;;;10.50;99.90;;;;;;5076031;28;20861;-52
2024/03/14 07:20:09;;;;;;;18.47;14.13;;;10.50;99.90;;;;;;5062944;28;20224;-49
2024/03/14 07:22:39;;;;;;;20.43;14.50;;;10.50;99.90;;;;;;5050294;28;20225;-55
2024/03/14 07:25:08;;;;;;;19.50;14.37;;;10.50;99.90;;;;;;5051019;28;20601;-50
2024/03/14 07:27:35;;;;;;;20.13;14.40;;;10.50;99.90;;;;;;5066649;28;20895;-55
2024/03/14 07:30:04;;;;;;;17.83;14.47;;;10.60;99.90;;;;;;5065993;28;20209;-54
2024/03/14 07:32:31;;;;;;;17.47;13.13;;;10.50;99.90;;;;;;5076283;28;20222;-50
2024/03/14 07:34:58;;;;;;;16.10;11.80;;;10.60;99.90;;;;;;5042578;28;20205;-51
2024/03/14 07:37:25;;;;;;;16.80;12.87;;;10.60;99.90;;;;;;5060555;28;20795;-51
2024/03/14 07:39:52;;;;;;;16.83;13.53;;;10.60;99.90;;;;;;5061766;28;20222;-55
2024/03/14 07:42:20;;;;;;;19.63;12.87;;;10.60;99.90;;;;;;5086038;28;20725;-49
2024/03/14 07:44:47;;;;;;;20.47;13.07;;;10.60;99.90;;;;;;5064648;28;20211;-52
2024/03/14 07:47:19;;;;;;;19.40;12.97;;;10.70;99.90;;;;;;5069387;28;20288;-50
2024/03/14 07:49:48;;;;;;;16.00;12.23;;;10.70;99.90;;;;;;5066297;28;20193;-54
2024/03/14 07:52:15;;;;;;;14.23;11.87;;;10.80;99.90;;;;;;5034770;28;21436;-50
2024/03/14 07:54:45;;;;;;;19.13;13.40;;;10.90;99.90;;;;;;5063251;28;20551;-55
2024/03/14 07:57:14;;;;;;;15.00;12.07;;;10.90;99.90;;;;;;5071672;28;20251;-49
2024/03/14 07:59:41;;;;;;;16.43;11.70;;;11.00;99.90;;;;;;5060645;28;20675;-52
2024/03/14 08:02:10;;;;;;;14.27;12.40;;;11.10;99.90;;;;;;5090510;28;20300;-49
2024/03/14 08:04:38;;;;;;;17.67;12.40;;;11.20;99.90;;;;;;5058230;28;20580;-54
2024/03/14 08:07:13;;;;;;;16.00;12.67;;;11.20;99.90;;;;;;5041130;28;20215;-49
2024/03/14 08:09:40;;;;;;;15.00;11.80;;;11.20;99.90;;;;;;5053151;28;20201;-50
2024/03/14 08:12:07;;;;;;;14.83;11.83;;;11.30;99.90;;;;;;5066201;28;20193;-52
2024/03/14 08:14:34;;;;;;;16.23;12.40;;;11.40;99.90;;;;;;5064095;28;20186;-52
2024/03/14 08:17:06;;;;;;;12.97;11.07;;;11.40;99.90;;;;;;5075535;28;20197;-52
2024/03/14 08:19:34;;;;;;;14.37;11.23;;;11.50;99.90;;;;;;5069778;28;20200;-49
2024/03/14 08:22:04;;;;;;;13.10;10.17;;;11.60;99.90;;;;;;5061104;28;21068;-51
2024/03/14 08:24:42;;;;;;;12.00;10.80;;;11.60;99.90;;;;;;5063010;28;20206;-49
2024/03/14 08:27:10;;;;;;;12.33;11.13;;;11.70;99.90;;;;;;5061980;28;20196;-50
2024/03/14 08:29:37;;;;;;;13.93;10.63;;;11.80;99.90;;;;;;5064128;28;20201;-50
2024/03/14 08:32:05;;;;;;;13.17;10.90;;;11.90;99.90;;;;;;5074949;28;20827;-53
2024/03/14 08:34:31;;;;;;;13.83;10.30;;;11.90;99.90;;;;;;5090029;28;20655;-52
2024/03/14 08:36:58;;;;;;;12.27;11.00;;;12.00;99.90;;;;;;5077868;28;20266;-55
2024/03/14 08:39:27;;;;;;;11.57;10.37;;;12.00;99.90;;;;;;5044158;28;20205;-49
2024/03/14 08:41:54;;;;;;;11.27;10.17;;;12.00;99.90;;;;;;5064405;28;20273;-55
2024/03/14 08:44:23;;;;;;;11.70;9.30;;;12.10;99.90;;;;;;5086541;28;20639;-50
2024/03/14 08:46:51;;;;;;;11.20;9.70;;;12.10;99.90;;;;;;5060124;28;20198;-54
2024/03/14 08:49:18;;;;;;;12.87;10.80;;;12.10;99.90;;;;;;5072009;28;20278;-54
2024/03/14 08:51:45;;;;;;;10.27;9.23;;;12.10;99.90;;;;;;5061990;28;20255;-52
2024/03/14 08:56:53;;;;;;;12.03;8.87;;;12.20;99.90;;;;;;5081269;28;20201;-53
2024/03/14 08:59:22;;;;;;;10.27;8.83;;;12.30;99.90;;;;;;5078827;28;20201;-53
2024/03/14 09:01:50;;;;;;;10.13;9.03;;;12.30;99.90;;;;;;5068444;28;20258;-53
2024/03/14 09:04:17;;;;;;;12.50;9.77;;;12.40;99.90;;;;;;5094105;28;20221;-50
2024/03/14 09:06:45;;;;;;;11.57;9.23;;;12.50;99.90;;;;;;5072990;28;20250;-55
2024/03/14 09:09:23;;;;;;;10.83;9.17;;;12.60;99.90;;;;;;5089878;28;20612;-49
2024/03/14 09:11:51;;;;;;;13.07;9.33;;;12.70;99.90;;;;;;5062262;28;20201;-49
2024/03/14 09:14:18;;;;;;;12.07;9.17;;;12.80;99.90;;;;;;5085715;28;20224;-50
2024/03/14 09:16:45;;;;;;;10.87;9.77;;;12.80;99.90;;;;;;5063894;28;20266;-53
2024/03/14 09:19:13;;;;;;;13.07;9.27;;;12.80;99.90;;;;;;5071887;28;20204;-54
2024/03/14 09:21:40;;;;;;;10.13;9.03;;;12.90;99.90;;;;;;5082677;28;20203;-53
2024/03/14 09:24:11;;;;;;;10.33;8.73;;;12.90;99.90;;;;;;5077153;28;20222;-49
2024/03/14 09:26:38;;;;;;;11.53;8.87;;;12.90;99.90;;;;;;5062488;28;20717;-52
2024/03/14 09:29:06;;;;;;;12.03;9.50;;;12.90;99.90;;;;;;5081690;28;20921;-52
2024/03/14 09:31:33;;;;;;;9.80;7.87;;;13.10;99.90;;;;;;5076851;28;20247;-55
2024/03/14 09:34:00;;;;;;;9.33;8.10;;;13.20;99.90;;;;;;5083689;28;20206;-50
2024/03/14 09:36:27;;;;;;;11.57;8.67;;;13.20;99.90;;;;;;5090516;28;20185;-50
2024/03/14 09:38:54;;;;;;;9.07;8.17;;;13.30;99.90;;;;;;5075420;28;20186;-50
2024/03/14 09:41:21;;;;;;;9.43;8.50;;;13.30;99.90;;;;;;5049362;28;20229;-49
2024/03/14 09:43:48;;;;;;;9.17;8.00;;;13.40;99.90;;;;;;5088748;28;20270;-50
2024/03/14 09:46:17;;;;;;;8.93;7.80;;;13.50;99.90;;;;;;5088660;28;20247;-50
2024/03/14 09:48:45;;;;;;;8.33;7.53;;;13.50;99.90;;;;;;5059884;28;20205;-55
2024/03/14 09:51:12;;;;;;;11.63;8.53;;;13.50;99.90;;;;;;5095514;28;20212;-53
2024/03/14 09:53:39;;;;;;;9.97;7.97;;;13.60;99.90;;;;;;5086995;28;20205;-55
2024/03/14 09:56:06;;;;;;;10.10;7.80;;;13.60;99.90;;;;;;5046039;28;20209;-50
2024/03/14 09:58:33;;;;;;;8.03;7.17;;;13.60;99.90;;;;;;5078879;28;20220;-51
2024/03/14 10:01:03;;;;;;;9.53;7.67;;;13.70;99.90;;;;;;5082725;28;20200;-51
2024/03/14 10:03:30;;;;;;;9.70;7.50;;;13.70;99.90;;;;;;5085961;28;20213;-55
2024/03/14 10:05:57;;;;;;;8.30;7.17;;;13.70;99.90;;;;;;5065419;28;21277;-49
2024/03/14 10:08:24;;;;;;;8.27;6.90;;;13.70;99.90;;;;;;5096928;28;20419;-51
2024/03/14 10:10:51;;;;;;;8.97;7.80;;;13.70;99.90;;;;;;5086090;28;20197;-48
2024/03/14 10:13:25;;;;;;;8.20;7.37;;;13.70;99.90;;;;;;5059659;28;20242;-49
2024/03/14 10:15:54;;;;;;;9.73;7.33;;;13.70;99.90;;;;;;5079408;28;20198;-51
2024/03/14 10:18:22;;;;;;;9.40;7.30;;;13.80;99.90;;;;;;5084027;28;20201;-51
2024/03/14 10:20:49;;;;;;;8.70;7.80;;;13.90;99.90;;;;;;5084408;28;20186;-51
2024/03/14 10:23:18;;;;;;;9.10;7.47;;;14.10;99.90;;;;;;5093513;28;20247;-50
2024/03/14 10:25:50;;;;;;;7.47;6.70;;;14.20;99.90;;;;;;5063389;28;20573;-55
2024/03/14 10:28:20;;;;;;;8.70;6.97;;;14.40;99.90;;;;;;5067855;28;20224;-50
2024/03/14 10:30:52;;;;;;;7.27;6.60;;;14.50;99.90;;;;;;5082666;28;20205;-52
2024/03/14 10:33:20;;;;;;;9.13;6.60;;;14.60;99.90;;;;;;5077962;28;20589;-50
2024/03/14 10:35:47;;;;;;;9.33;6.73;;;14.60;99.90;;;;;;5078300;28;20766;-51
2024/03/14 10:38:15;;;;;;;7.30;6.57;;;14.60;99.90;;;;;;5070749;28;20274;-50
2024/03/14 10:40:42;;;;;;;7.77;5.87;;;14.70;99.90;;;;;;5065257;28;20631;-50
2024/03/14 10:43:10;;;;;;;7.13;5.47;;;14.70;99.90;;;;;;5060664;28;20232;-48
2024/03/14 10:45:36;;;;;;;6.27;5.67;;;14.80;99.90;;;;;;5087656;28;20197;-52
2024/03/14 10:48:04;;;;;;;5.67;5.10;;;14.90;99.90;;;;;;5078393;28;20190;-52
2024/03/14 10:50:32;;;;;;;7.87;5.83;;;15.00;99.90;;;;;;5084844;28;20277;-53
2024/03/14 10:53:00;;;;;;;5.40;4.90;;;15.00;99.90;;;;;;5093444;28;20296;-55
2024/03/14 10:55:30;;;;;;;6.30;5.10;;;15.10;99.90;;;;;;5094824;28;20270;-50
2024/03/14 10:57:58;;;;;;;5.33;4.40;;;15.10;99.90;;;;;;5039827;28;20202;-48
2024/03/14 11:00:25;;;;;;;5.13;4.63;;;15.10;99.90;;;;;;5096706;28;20198;-50
2024/03/14 11:02:52;;;;;;;6.63;5.13;;;15.10;99.90;;;;;;5080034;28;20752;-48
2024/03/14 11:05:22;;;;;;;5.80;5.20;;;15.10;99.90;;;;;;5092373;28;20660;-48
2024/03/14 11:07:51;;;;;;;5.67;5.17;;;15.20;99.90;;;;;;5059493;28;20213;-48
2024/03/14 11:10:19;;;;;;;5.83;5.27;;;15.20;99.90;;;;;;5087066;28;20194;-49
2024/03/14 11:12:47;;;;;;;5.87;4.63;;;15.20;99.90;;;;;;5057151;28;20228;-55
2024/03/14 11:15:16;;;;;;;5.40;4.30;;;15.20;99.90;;;;;;5091039;28;20201;-48
2024/03/14 11:17:43;;;;;;;5.17;4.33;;;15.20;99.90;;;;;;5067040;28;20743;-54
2024/03/14 11:20:11;;;;;;;6.13;3.97;;;15.30;99.90;;;;;;5071786;28;20535;-50
2024/03/14 11:22:42;;;;;;;4.73;4.33;;;15.30;99.90;;;;;;5088335;28;20225;-54
2024/03/14 11:25:09;;;;;;;5.33;4.50;;;15.40;99.90;;;;;;5091280;28;20213;-49
2024/03/14 11:27:37;;;;;;;6.57;4.67;;;15.40;99.90;;;;;;5071679;28;20198;-53
2024/03/14 11:30:10;;;;;;;6.17;4.20;;;15.40;99.90;;;;;;5063235;28;20867;-51
2024/03/14 11:32:37;;;;;;;4.63;3.73;;;15.30;99.90;;;;;;5083083;28;20214;-52
2024/03/14 11:35:40;;;;;;;4.63;4.23;;;15.40;99.90;;;;;;5080268;28;20281;-50
2024/03/14 11:38:28;;;;;;;4.63;4.23;;;15.50;99.90;;;;;;5089188;28;20300;-53
2024/03/14 11:40:55;;;;;;;3.97;3.50;;;15.50;99.90;;;;;;5068488;28;20831;-49
2024/03/14 11:43:22;;;;;;;4.97;4.20;;;15.50;99.90;;;;;;5089953;28;20225;-50
2024/03/14 11:45:59;;;;;;;7.77;4.20;;;15.40;99.90;;;;;;5049913;28;20206;-51
2024/03/14 11:48:26;;;;;;;4.13;3.27;;;15.50;99.90;;;;;;5090723;28;20225;-50
2024/03/14 11:50:53;;;;;;;4.87;4.37;;;15.50;99.90;;;;;;5080118;28;20193;-48
2024/03/14 11:53:21;;;;;;;5.17;4.57;;;15.60;99.90;;;;;;5065470;28;20229;-51
2024/03/14 11:55:48;;;;;;;7.23;3.80;;;15.60;99.90;;;;;;5089044;28;20932;-49
2024/03/14 11:58:15;;;;;;;4.33;3.90;;;15.70;99.90;;;;;;5083842;28;20190;-48
2024/03/14 12:00:42;;;;;;;4.50;4.10;;;15.70;99.90;;;;;;5058108;28;20329;-52
2024/03/14 12:03:11;;;;;;;4.67;4.20;;;15.90;99.90;;;;;;5087609;28;20206;-48
2024/03/14 12:05:44;;;;;;;4.60;4.20;;;16.00;99.90;;;;;;5066120;28;20217;-52
2024/03/14 12:08:12;;;;;;;5.23;4.77;;;15.90;99.90;;;;;;5079375;28;20285;-50
2024/03/14 12:10:39;;;;;;;4.20;3.80;;;15.90;99.90;;;;;;5073490;28;20219;-51
2024/03/14 12:13:14;;;;;;;7.07;4.30;;;16.00;99.90;;;;;;5081023;28;20728;-51
2024/03/14 12:15:41;;;;;;;4.70;4.20;;;16.10;99.90;;;;;;5058577;28;20709;-54
2024/03/14 12:18:10;;;;;;;5.80;4.33;;;16.10;99.90;;;;;;5087612;28;20211;-49
2024/03/14 12:20:38;;;;;;;6.30;4.57;;;16.10;99.90;;;;;;5069393;28;20201;-54
2024/03/14 12:23:07;;;;;;;6.70;4.40;;;16.10;99.90;;;;;;5085027;28;20282;-49
2024/03/14 12:25:37;;;;;;;5.37;4.60;;;16.10;99.90;;;;;;5096100;28;20204;-55
2024/03/14 12:28:04;;;;;;;5.47;4.43;;;16.10;99.90;;;;;;5091409;28;20193;-49
2024/03/14 12:30:33;;;;;;;5.30;4.13;;;16.20;99.90;;;;;;5063117;28;20201;-53
2024/03/14 12:33:01;;;;;;;4.77;4.30;;;16.30;99.90;;;;;;5061854;28;20227;-53
2024/03/14 12:35:28;;;;;;;5.83;4.83;;;16.30;99.90;;;;;;5092615;28;21249;-52
2024/03/14 12:37:55;;;;;;;4.57;4.13;;;16.40;99.90;;;;;;5093406;28;20209;-53
2024/03/14 12:40:22;;;;;;;5.17;4.67;;;16.50;99.90;;;;;;5077718;28;20205;-54